Home | Tutorials | Wiki | Issues
Ask Your Question

Jose Luis Rivero's profile - karma

Jose Luis Rivero's karma change log

2 0 Cannot start Gazebo (no Gui) ( 2020-02-14 07:03:16 -0600 )

2 0 Ignition-Physics: Bullet physics engine support? ( 2020-02-11 17:04:38 -0600 )

15 0 Issues installing gazebo7 ( 2020-02-10 16:53:42 -0600 )

2 0 Gazebo 11 for Ubuntu 20.04? ( 2020-02-08 13:48:52 -0600 )

2 0 Problem with get.gazebosim.org ( 2020-02-05 09:16:25 -0600 )

10 0 Why GpuRaySensor do not support intensity readings ? ( 2019-10-17 08:57:10 -0600 )

0 10 Why GpuRaySensor do not support intensity readings ? ( 2019-10-14 04:16:31 -0600 )

15 0 Error running gzserver from an ubuntu server. ( 2019-04-06 15:02:43 -0600 )

2 0 OSRF FRC 2016 Competition ( 2018-10-25 10:16:52 -0600 )

2 0 libgazebo_ros_diff_drive publishes tf based on wall clock time instead of sim time ( 2018-10-16 09:30:41 -0600 )

2 0 turtlebot_gazebo segfaults ( 2018-10-04 12:13:18 -0600 )

2 0 Baxter_Gazebo: can't get current joint states ( 2018-05-11 11:36:28 -0600 )

10 0 gazebo_ros_openni_kinect plugin with roll + pitch orientation generates wrong depth image ( 2018-04-24 08:47:27 -0600 )

0 -2 Pepper model falls at startup ( 2018-04-03 13:51:37 -0600 )

2 0 Pepper model falls at startup ( 2018-04-03 13:51:35 -0600 )

0 -2 Pepper model falls at startup ( 2018-04-03 13:51:35 -0600 )

2 0 Pepper model falls at startup ( 2018-04-03 13:51:33 -0600 )

0 -2 Pepper model falls at startup ( 2018-04-03 13:51:32 -0600 )

2 0 Pepper model falls at startup ( 2018-04-03 13:51:28 -0600 )

10 0 what version of Gazebo 7.x is ROS Kinetic using? ( 2018-02-05 10:45:27 -0600 )

10 0 what version of Gazebo 7.x is ROS Kinetic using? ( 2018-02-05 10:36:33 -0600 )

10 0 Standalone gzserver executable ( 2018-01-16 11:13:39 -0600 )

15 0 Making Gazebo sensor topics visible in ROS ( 2018-01-12 16:30:58 -0600 )

10 0 Making Gazebo sensor topics visible in ROS ( 2018-01-12 16:30:58 -0600 )

10 0 Making Gazebo sensor topics visible in ROS ( 2018-01-11 11:55:00 -0600 )

0 -10 Standalone gzserver executable ( 2018-01-10 18:21:13 -0600 )

10 0 Standalone gzserver executable ( 2018-01-10 18:18:43 -0600 )

0 -2 Help with getting the robot to move in gazebo ( 2017-11-29 05:00:42 -0600 )

2 0 Help with getting the robot to move in gazebo ( 2017-11-29 05:00:41 -0600 )

10 0 Error running gzserver from an ubuntu server. ( 2017-11-25 21:31:43 -0600 )

10 0 Has anybody installed Gazebo 8 with Ubuntu 14.04? ( 2017-10-05 14:09:04 -0600 )

10 0 Gazebo deb for ROS has wrong GAZEBO_PLUGIN_PATH ( 2017-04-27 02:13:31 -0600 )

10 0 Which SDFormat corresponds to version of Gazebo ( 2017-02-25 16:22:41 -0600 )

15 0 Which SDFormat corresponds to version of Gazebo ( 2017-02-25 16:22:39 -0600 )

10 0 Which SDFormat corresponds to version of Gazebo ( 2017-02-21 12:52:51 -0600 )

0 -15 gazebo ros drone with two front cameras ( 2017-02-04 16:24:32 -0600 )

10 0 gazebo ros drone with two front cameras ( 2017-02-04 12:49:17 -0600 )

15 0 gazebo ros drone with two front cameras ( 2017-02-04 12:27:27 -0600 )

10 0 Has anybody installed Gazebo 8 with Ubuntu 14.04? ( 2017-01-26 19:07:13 -0600 )

15 0 Gazebo 5.4 premature release? ( 2017-01-20 11:34:53 -0600 )

10 0 Gazebo 5.4 premature release? ( 2017-01-20 11:34:53 -0600 )

10 0 Gazebo 5.4 premature release? ( 2017-01-20 11:31:48 -0600 )

10 0 Gazebo 5.4 premature release? ( 2017-01-20 11:30:07 -0600 )

10 0 unable to install baxter with ros indigo and gazebo 7 ( 2017-01-09 10:32:42 -0600 )

10 0 unable to install baxter with ros indigo and gazebo 7 ( 2017-01-09 10:08:23 -0600 )

15 0 unable to install baxter with ros indigo and gazebo 7 ( 2017-01-09 10:08:21 -0600 )

15 0 packages contaning gazebo plugins ( 2016-12-16 19:07:15 -0600 )

10 0 Running a Camera Sensor Headless ( 2016-10-31 13:26:43 -0600 )

10 0 How to install ros-indigo-gazebo-ros-control with Gazebo 5 ( 2016-08-31 23:45:11 -0600 )

15 0 Mordern CMake for Gazebo ( 2016-07-06 00:58:01 -0600 )

10 0 Mordern CMake for Gazebo ( 2016-07-06 00:58:00 -0600 )

10 0 Mordern CMake for Gazebo ( 2016-07-05 10:58:28 -0600 )

2 0 Where can i find all ErleCopter simuation files ? ( 2016-05-03 00:08:58 -0600 )

10 0 The model editor imports my model as a block ( 2016-05-02 20:21:46 -0600 )

15 0 What happens after gazebo issues in bitbucket is resolved ( 2016-04-02 10:29:31 -0600 )

10 0 What happens after gazebo issues in bitbucket is resolved ( 2015-12-17 12:00:31 -0600 )

10 0 What happens after gazebo issues in bitbucket is resolved ( 2015-12-17 11:55:06 -0600 )

2 0 trouble on creating wiki account ( 2015-12-17 10:19:24 -0600 )

10 0 problem with volcano.world demo ( 2015-10-09 11:19:07 -0600 )

10 0 Unable to compile Gazebo with Dart. Bizarre error no static lib found error. ( 2015-06-30 12:18:06 -0600 )

15 0 Unable to compile Gazebo with Dart. Bizarre error no static lib found error. ( 2015-06-30 12:18:04 -0600 )

10 0 gazebo-2.0 is called when I want to execute gazebo-5.0.0 ( 2015-06-04 21:22:26 -0600 )

15 0 gazebo-2.0 is called when I want to execute gazebo-5.0.0 ( 2015-06-04 21:22:25 -0600 )

15 0 Installing ROS Jade with Gazebo 5.0.1 ( 2015-05-26 13:30:56 -0600 )

10 0 How to install ros-indigo-gazebo-ros-control with Gazebo 5 ( 2015-05-01 21:05:36 -0600 )

2 0 Want to install gazebo5 but has ROS indigo installed. ( 2015-03-04 11:27:50 -0600 )

2 0 What is wrong with my Contact Sensor Code? ( 2015-03-04 11:20:24 -0600 )

10 0 Gazebo5 ROS packages? ( 2015-02-17 05:24:45 -0600 )

15 0 Gazebo5 ROS packages? ( 2015-02-17 03:44:05 -0600 )

10 0 Gazebo5 ROS packages? ( 2015-02-17 03:44:03 -0600 )

10 0 Gazebo5 ROS packages? ( 2015-02-16 19:26:09 -0600 )

15 0 Can't find model database when roslaunch'd, but can find it when Gazebo is run by itself. ( 2015-02-13 18:29:19 -0600 )

10 0 Can't find model database when roslaunch'd, but can find it when Gazebo is run by itself. ( 2015-02-13 03:04:01 -0600 )

0 -5 Can't find model database when roslaunch'd, but can find it when Gazebo is run by itself. ( 2015-02-13 03:03:55 -0600 )

15 0 Can't find model database when roslaunch'd, but can find it when Gazebo is run by itself. ( 2015-02-13 03:03:52 -0600 )

10 0 DART support for Mac OS X? ( 2014-11-25 23:08:53 -0600 )

10 0 Gazebo on headless simulation server ( 2014-11-24 07:56:56 -0600 )

15 0 Problem with SDF and bottom camera ( 2014-11-20 17:41:34 -0600 )

10 0 DART support for Mac OS X? ( 2014-11-17 17:19:39 -0600 )

10 0 Problem with SDF and bottom camera ( 2014-11-17 13:07:39 -0600 )

2 0 Settings for exporting collada (DAE) from Blender scene, specifically Human actors ( 2014-11-17 01:43:24 -0600 )

10 0 Gazebo 4 Installation Fails on "make -j4" ( 2014-10-20 14:53:24 -0600 )

10 0 ROS Plugin Source Code Examples? ( 2014-09-22 09:29:50 -0600 )

0 -10 ROS Plugin Source Code Examples? ( 2014-09-22 09:29:47 -0600 )

10 0 ROS Plugin Source Code Examples? ( 2014-09-22 09:29:47 -0600 )

0 -10 ROS Plugin Source Code Examples? ( 2014-09-22 09:29:10 -0600 )

10 0 ROS Plugin Source Code Examples? ( 2014-09-22 09:29:03 -0600 )

15 0 Problem with the packet of ROS Hydro ( 2014-08-19 08:42:27 -0600 )

10 0 Problem with the packet of ROS Hydro ( 2014-08-19 08:42:25 -0600 )

0 -10 Problem with the packet of ROS Hydro ( 2014-08-19 08:42:24 -0600 )

10 0 Problem with the packet of ROS Hydro ( 2014-08-19 08:42:21 -0600 )

0 -10 Problem with the packet of ROS Hydro ( 2014-08-19 08:42:18 -0600 )

10 0 Problem with the packet of ROS Hydro ( 2014-08-19 08:24:07 -0600 )

10 0 Problem after installing DRCSim ( 2014-08-06 12:40:59 -0600 )

0 -10 Problem after installing DRCSim ( 2014-08-06 12:40:58 -0600 )

10 0 Problem after installing DRCSim ( 2014-08-06 12:40:55 -0600 )

15 0 Problem after installing DRCSim ( 2014-08-06 12:40:53 -0600 )

10 0 Problems with Install to Gazebo 3 ( 2014-07-30 06:29:03 -0600 )

15 0 Problems with Install to Gazebo 3 ( 2014-07-29 22:35:29 -0600 )

10 0 Problems with Install to Gazebo 3 ( 2014-07-29 22:35:24 -0600 )